Time;durP1;ratioP1;P1;durP2;ratioP2;P2;SDS_P1;SDS_P2;PMS_P1;PMS_P2;Temp;Humidity;BMP_temperature;BMP_pressure;BME280_temperature;BME280_humidity;BME280_pressure;Samples;Min_cycle;Max_cycle;Signal;HPM_P1;HPM_P2
2023/08/03 00:15:09;;;;;;;1.80;1.40;;;;;;;-147.24;100.00;62006.19;41270789;28;20050;-83
2023/08/03 00:35:09;;;;;;;1.30;1.20;;;;;;;-147.24;100.00;62006.19;41273507;28;20107;-82
2023/08/03 00:55:10;;;;;;;2.03;1.40;;;;;;;-147.24;100.00;62006.19;41285651;28;20120;-81
2023/08/03 01:15:10;;;;;;;2.03;1.38;;;;;;;-147.24;100.00;62006.19;41291110;28;20069;-79
2023/08/03 01:35:12;;;;;;;2.10;1.45;;;;;;;-147.24;100.00;62006.19;41279468;28;20812;-81
2023/08/03 01:55:14;;;;;;;3.08;1.35;;;;;;;-147.24;100.00;62006.19;41293646;28;20070;-81
2023/08/03 02:15:16;;;;;;;2.67;1.42;;;;;;;-147.24;100.00;62006.19;41302468;28;20050;-83
2023/08/03 02:35:16;;;;;;;2.70;1.38;;;;;;;-147.24;100.00;62006.19;41290650;28;20420;-81
2023/08/03 02:55:16;;;;;;;3.03;1.60;;;;;;;-147.24;100.00;62006.19;41296918;28;20042;-83
2023/08/03 03:15:18;;;;;;;2.33;1.70;;;;;;;-147.24;100.00;62006.19;41280434;28;20061;-83
2023/08/03 03:35:18;;;;;;;3.00;1.60;;;;;;;-147.24;100.00;62006.19;41289912;28;20596;-83
2023/08/03 03:55:19;;;;;;;4.25;2.08;;;;;;;-147.24;100.00;62006.19;41312436;28;20066;-81
2023/08/03 04:15:19;;;;;;;3.20;2.10;;;;;;;-147.24;100.00;62006.19;41289595;28;20052;-82
2023/08/03 04:35:20;;;;;;;6.75;2.40;;;;;;;-147.24;100.00;62006.19;41280606;28;20050;-81
2023/08/03 04:55:20;;;;;;;3.17;2.28;;;;;;;-147.24;100.00;62006.19;41245169;28;20061;-84
2023/08/03 05:15:20;;;;;;;8.18;2.50;;;;;;;-147.24;100.00;62006.19;41249589;28;20533;-79
2023/08/03 05:35:21;;;;;;;4.13;2.30;;;;;;;-147.24;100.00;62006.19;41248256;28;20043;-78
2023/08/03 05:55:22;;;;;;;5.68;2.72;;;;;;;-147.24;100.00;62006.19;41232751;28;20489;-81
2023/08/03 06:15:23;;;;;;;9.35;2.80;;;;;;;-147.24;100.00;62006.19;41247372;28;20054;-85
2023/08/03 06:35:38;;;;;;;5.90;2.85;;;;;;;-147.24;100.00;62006.19;41274942;28;20065;-84
2023/08/03 06:55:40;;;;;;;4.15;3.08;;;;;;;-147.24;100.00;62006.19;41290571;28;20157;-84
2023/08/03 07:15:40;;;;;;;7.18;3.72;;;;;;;-147.24;100.00;62006.19;41289501;28;20051;-87
2023/08/03 07:35:42;;;;;;;5.70;3.03;;;;;;;-147.24;100.00;62006.19;41301285;28;20065;-85
2023/08/03 07:55:42;;;;;;;5.07;3.50;;;;;;;-147.24;100.00;62006.19;41311848;28;20046;-93
2023/08/03 08:15:43;;;;;;;5.70;4.00;;;;;;;-147.24;100.00;62006.19;41328141;28;20042;-92
2023/08/03 08:35:46;;;;;;;6.60;4.32;;;;;;;-147.24;100.00;62006.19;41311133;28;20105;-89
2023/08/03 08:55:50;;;;;;;5.07;4.00;;;;;;;-147.24;100.00;62006.19;41286545;28;20501;-87
2023/08/03 09:15:55;;;;;;;5.13;3.60;;;;;;;-147.24;100.00;62006.19;41288595;28;20505;-90
2023/08/03 09:36:14;;;;;;;4.50;3.58;;;;;;;-147.24;100.00;62006.19;41294125;28;20034;-88
2023/08/03 09:56:23;;;;;;;4.72;3.65;;;;;;;-147.24;100.00;62006.19;41340001;28;20054;-86
2023/08/03 10:16:24;;;;;;;5.72;4.00;;;;;;;-147.24;100.00;62006.19;41383164;28;20094;-85
2023/08/03 10:36:28;;;;;;;4.07;3.67;;;;;;;-147.24;100.00;62006.19;41348003;28;20054;-86
2023/08/03 10:56:28;;;;;;;5.03;3.57;;;;;;;-147.24;100.00;62006.19;41330186;28;20062;-90
2023/08/03 11:16:30;;;;;;;3.75;2.80;;;;;;;-147.24;100.00;62006.19;41360829;28;20340;-91
2023/08/03 11:36:30;;;;;;;2.90;2.50;;;;;;;-147.24;100.00;62006.19;41337394;28;20046;-86
2023/08/03 11:56:34;;;;;;;4.63;2.78;;;;;;;-147.24;100.00;62006.19;41361870;28;20046;-87
2023/08/03 12:16:37;;;;;;;3.37;2.90;;;;;;;-147.24;100.00;62006.19;41382964;28;20051;-86
2023/08/03 12:36:37;;;;;;;2.65;1.90;;;;;;;-147.24;100.00;62006.19;41338641;28;20287;-85
2023/08/03 12:56:40;;;;;;;1.98;1.70;;;;;;;-147.24;100.00;62006.19;41366106;28;20053;-86
2023/08/03 13:16:40;;;;;;;1.83;1.60;;;;;;;-147.24;100.00;62006.19;41360644;28;20038;-86
2023/08/03 13:36:41;;;;;;;12.65;3.03;;;;;;;-147.24;100.00;62006.19;41378984;28;20053;-87
2023/08/03 13:56:42;;;;;;;4.85;1.90;;;;;;;-147.24;100.00;62006.19;41374534;28;20041;-83
2023/08/03 14:16:48;;;;;;;6.10;2.40;;;;;;;-147.24;100.00;62006.19;41364986;28;20892;-82
2023/08/03 14:36:48;;;;;;;3.53;2.50;;;;;;;-147.24;100.00;62006.19;41351612;28;20108;-88
2023/08/03 14:56:49;;;;;;;3.50;2.30;;;;;;;-147.24;100.00;62006.19;41353281;28;20053;-87
2023/08/03 15:16:49;;;;;;;5.30;2.53;;;;;;;-147.24;100.00;62006.19;41313829;28;20105;-84
2023/08/03 15:36:51;;;;;;;6.47;2.67;;;;;;;-147.24;100.00;62006.19;41314509;28;20050;-85
2023/08/03 15:56:52;;;;;;;4.82;2.83;;;;;;;-147.24;100.00;62006.19;41301205;28;20035;-86
2023/08/03 16:16:52;;;;;;;4.90;2.72;;;;;;;-147.24;100.00;62006.19;41289937;28;20054;-81
2023/08/03 16:36:54;;;;;;;3.83;1.92;;;;;;;-147.24;100.00;62006.19;41284629;28;20093;-90
2023/08/03 16:56:55;;;;;;;5.07;2.10;;;;;;;-147.24;100.00;62006.19;41301697;28;20054;-84
2023/08/03 17:16:56;;;;;;;1.85;1.60;;;;;;;-147.24;100.00;62006.19;41295753;28;20047;-85
2023/08/03 17:36:56;;;;;;;3.47;1.67;;;;;;;-147.24;100.00;62006.19;41300317;28;20043;-87
2023/08/03 17:57:03;;;;;;;1.95;1.55;;;;;;;-147.24;100.00;62006.19;41297881;28;20089;-88
2023/08/03 18:17:05;;;;;;;2.92;1.58;;;;;;;-147.24;100.00;62006.19;41247447;28;20061;-83
2023/08/03 18:37:07;;;;;;;5.47;1.63;;;;;;;-147.24;100.00;62006.19;41246785;28;20047;-82
2023/08/03 18:57:10;;;;;;;4.50;1.58;;;;;;;-147.24;100.00;62006.19;41242562;28;20046;-83
2023/08/03 19:17:18;;;;;;;3.33;1.73;;;;;;;-147.24;100.00;62006.19;41249477;28;20057;-80
2023/08/03 19:37:18;;;;;;;2.92;1.80;;;;;;;-147.24;100.00;62006.19;41259401;28;20043;-82
2023/08/03 19:57:19;;;;;;;6.72;1.77;;;;;;;-147.24;100.00;62006.19;41249325;28;20042;-85
2023/08/03 20:17:21;;;;;;;4.30;2.03;;;;;;;-147.24;100.00;62006.19;41266080;28;20054;-87
2023/08/03 20:37:21;;;;;;;5.22;2.20;;;;;;;-147.24;100.00;62006.19;41271618;28;20061;-85
2023/08/03 20:57:22;;;;;;;4.78;2.00;;;;;;;-147.24;100.00;62006.19;41284686;28;20053;-87
2023/08/03 21:17:23;;;;;;;3.63;1.95;;;;;;;-147.24;100.00;62006.19;41266784;28;20053;-89
2023/08/03 21:37:23;;;;;;;4.85;1.88;;;;;;;-147.24;100.00;62006.19;41259381;28;20070;-89
2023/08/03 21:57:25;;;;;;;4.13;1.95;;;;;;;-147.24;100.00;62006.19;41275831;28;20050;-89
2023/08/03 22:17:25;;;;;;;3.40;1.90;;;;;;;-147.24;100.00;62006.19;41297390;28;20108;-87
2023/08/03 22:37:26;;;;;;;3.28;1.80;;;;;;;-147.24;100.00;62006.19;41309998;28;20124;-85
2023/08/03 22:57:26;;;;;;;5.50;1.85;;;;;;;-147.24;100.00;62006.19;41281593;28;20041;-85
2023/08/03 23:17:27;;;;;;;3.67;1.92;;;;;;;-147.24;100.00;62006.19;41279547;28;20588;-85
2023/08/03 23:37:28;;;;;;;2.53;1.70;;;;;;;-147.24;100.00;62006.19;41263197;28;20019;-82
2023/08/03 23:57:30;;;;;;;2.30;1.80;;;;;;;-147.24;100.00;62006.19;41284723;28;20045;-84
